Britannia — VY5348 — position and weather

sailwx.info

Track history (hours):
 
Tides and Currents Weather Stations Pressure Air Temp Water Temp Dewpoint Dewpoint Depression Visibility Wind Speed Wind Dir Waves Ship Positions

Britannia

Last reported at 2016-Jul-31 08:32 UTC. Time now 2016-Jul-31 09:27 UTC.
Position N 49°18' W 123°08'.

Length 38 m; draft 5.4 m.

Type: Passenger vessel. MMSI: 316021351.

Date/timePositionNaut miles runAvg speedWind from/ knotsBaromVisibWave heightAir tempDewpointWater temp
2016-Jul-31 08:32N 49°18' W 123°08'0 0.0
2016-Jul-31 07:29N 49°18' W 123°08'0 0.0
2016-Jul-31 06:32N 49°18' W 123°08'1 1.5
2016-Jul-31 05:33N 49°19' W 123°10'1 1.1
2016-Jul-31 04:33N 49°18' W 123°11'3 2.7
2016-Jul-31 03:34N 49°18' W 123°07'1 0.9
2016-Jul-31 02:33N 49°18' W 123°08'0 0.0
2016-Jul-31 01:33N 49°18' W 123°08'0 0.0
2016-Jul-31 00:33N 49°18' W 123°08'0 0.0
2016-Jul-30 22:33N 49°18' W 123°08'0 0.0
2016-Jul-30 21:33N 49°18' W 123°08'3 3.0
2016-Jul-30 20:33N 49°19' W 123°12'9 8.8
2016-Jul-30 19:33N 49°27' W 123°18'4 3.1
2016-Jul-30 18:22N 49°31' W 123°18'4 5.0
2016-Jul-30 17:33N 49°27' W 123°18'9 8.9
2016-Jul-30 16:33N 49°19' W 123°11'2 2.3
2016-Jul-30 15:32N 49°18' W 123°08'0 0.0
2016-Jul-30 14:32N 49°18' W 123°08'0 0.0
2016-Jul-30 13:32N 49°18' W 123°08'0 0.0
2016-Jul-30 12:32N 49°18' W 123°08'0 0.0
2016-Jul-30 11:32N 49°18' W 123°08'0 0.0
2016-Jul-30 10:32N 49°18' W 123°08'0 0.0
2016-Jul-30 09:32N 49°18' W 123°08'0 0.0
2016-Jul-30 08:32N 49°18' W 123°08'0 0.0
2016-Jul-30 07:32N 49°18' W 123°08'0 0.0
2016-Jul-30 06:32N 49°18' W 123°08'0 0.0
2016-Jul-30 05:32N 49°18' W 123°08'0 0.0
2016-Jul-30 04:32N 49°18' W 123°08'0 0.0
2016-Jul-30 03:32N 49°18' W 123°08'0 0.0
2016-Jul-30 02:32N 49°18' W 123°08'0 0.0
2016-Jul-30 01:32N 49°18' W 123°08'0 0.0
2016-Jul-30 00:32N 49°18' W 123°08'0 0.0
2016-Jul-29 23:32N 49°18' W 123°08'0 0.0
2016-Jul-29 22:32N 49°18' W 123°08'0 0.0
2016-Jul-29 21:32N 49°18' W 123°08'0 0.0
2016-Jul-29 20:32N 49°18' W 123°08'0 0.0
2016-Jul-29 19:32N 49°18' W 123°08'0 0.0
2016-Jul-29 18:32N 49°18' W 123°08'0 0.0
2016-Jul-29 17:32N 49°18' W 123°08'0 0.0
2016-Jul-29 16:32N 49°18' W 123°08'0 0.0
2016-Jul-29 15:32N 49°18' W 123°08'0 0.0
2016-Jul-29 14:32N 49°18' W 123°08'0 0.0
2016-Jul-29 13:32N 49°18' W 123°08'0 0.0
2016-Jul-29 12:32N 49°18' W 123°08'0 0.0
2016-Jul-29 11:32N 49°18' W 123°08'0 0.0
2016-Jul-29 10:29N 49°18' W 123°08'0 0.0
2016-Jul-29 09:32N 49°18' W 123°08'0 0.0
2016-Jul-29 08:32N 49°18' W 123°08'0 0.0
2016-Jul-29 07:32N 49°18' W 123°08'0 0.0
2016-Jul-29 06:32N 49°18' W 123°08'0 0.0
2016-Jul-29 05:32N 49°18' W 123°08'0 0.0
2016-Jul-29 04:32N 49°18' W 123°08'0 0.0
2016-Jul-29 03:32N 49°18' W 123°08'0 0.0
2016-Jul-29 02:32N 49°18' W 123°08'0 0.0
2016-Jul-29 01:32N 49°18' W 123°08'1 0.6
2016-Jul-29 00:33N 49°18' W 123°07'1 0.6
2016-Jul-28 23:33N 49°18' W 123°08'3 2.7
2016-Jul-28 22:32N 49°19' W 123°11'9 8.9
2016-Jul-28 21:33N 49°25' W 123°22'2 0.8
2016-Jul-28 19:24N 49°25' W 123°24'8 8.7
2016-Jul-28 18:32N 49°20' W 123°16'6 1.7
2016-Jul-28 15:12N 49°18' W 123°08'0 0.0
2016-Jul-28 13:06N 49°18' W 123°08'0 0.0
2016-Jul-28 12:30N 49°18' W 123°08'0 0.0
2016-Jul-28 11:18N 49°18' W 123°08'0 0.0
2016-Jul-28 10:30N 49°18' W 123°08'0 0.0
2016-Jul-28 09:30N 49°18' W 123°08'0 0.0
2016-Jul-28 07:24N 49°18' W 123°08'0 0.4
2016-Jul-28 06:33N 49°18' W 123°08'2 2.3
2016-Jul-28 05:33N 49°18' W 123°11'1 0.9
2016-Jul-28 04:12N 49°18' W 123°13'3 4.7
2016-Jul-28 03:33N 49°19' W 123°08'1 1.1
2016-Jul-28 02:24N 49°18' W 123°08'0 0.0
2016-Jul-28 01:12N 49°18' W 123°08'0 0.0
2016-Jul-28 00:24N 49°18' W 123°08'0 0.0
2016-Jul-27 23:24N 49°18' W 123°08'0 0.0
2016-Jul-27 22:30N 49°18' W 123°08'0 0.0
2016-Jul-27 21:33N 49°18' W 123°08'0 0.0
2016-Jul-27 20:33N 49°18' W 123°08'0 0.0
2016-Jul-27 19:33N 49°18' W 123°08'0 0.0
2016-Jul-27 18:33N 49°18' W 123°08'0 0.0
2016-Jul-27 17:33N 49°18' W 123°08'0 0.0
2016-Jul-27 16:33N 49°18' W 123°08'0 0.0
2016-Jul-27 15:33N 49°18' W 123°08'0 0.0
2016-Jul-27 14:33N 49°18' W 123°08'0 0.0
2016-Jul-27 13:33N 49°18' W 123°08'0 0.0
2016-Jul-27 12:33N 49°18' W 123°08'0 0.0
2016-Jul-27 11:33N 49°18' W 123°08'0 0.0
2016-Jul-27 10:32N 49°18' W 123°08'0 0.0
2016-Jul-27 09:32N 49°18' W 123°08'0 0.0
2016-Jul-27 08:32N 49°18' W 123°08'0 0.0
2016-Jul-27 07:32N 49°18' W 123°08'0 0.0
2016-Jul-27 06:32N 49°18' W 123°08'0 0.0
2016-Jul-27 05:32N 49°18' W 123°08'0 0.0
2016-Jul-27 04:32N 49°18' W 123°08'0 0.0
2016-Jul-27 03:32N 49°18' W 123°08'0 0.0
2016-Jul-27 02:32N 49°18' W 123°08'0 0.0
2016-Jul-27 01:32N 49°18' W 123°08'0 0.0
2016-Jul-27 00:32N 49°18' W 123°08'0 0.0
2016-Jul-26 23:32N 49°18' W 123°08'0 0.0
2016-Jul-26 22:32N 49°18' W 123°08'0 0.0
2016-Jul-26 21:32N 49°18' W 123°08'0 0.0
2016-Jul-26 20:32N 49°18' W 123°08'0 0.0
2016-Jul-26 19:32N 49°18' W 123°08'0 0.0
2016-Jul-26 18:32N 49°18' W 123°08'0 0.0
2016-Jul-26 17:32N 49°18' W 123°08'0 0.0
2016-Jul-26 16:32N 49°18' W 123°08'0 0.0
2016-Jul-26 15:32N 49°18' W 123°08'0 0.0
2016-Jul-26 14:32N 49°18' W 123°08'0 0.0
2016-Jul-26 13:32N 49°18' W 123°08'0 0.0
2016-Jul-26 12:29N 49°18' W 123°08'0 0.0
2016-Jul-26 11:32N 49°18' W 123°08'0 0.0
2016-Jul-26 10:32N 49°18' W 123°08'0 0.0
2016-Jul-26 09:32N 49°18' W 123°08'0 0.0
2016-Jul-26 08:32N 49°18' W 123°08'0 0.0
2016-Jul-26 07:32N 49°18' W 123°08'0 0.0
2016-Jul-26 06:32N 49°18' W 123°08'0 0.0
2016-Jul-26 05:32N 49°18' W 123°08'0 0.0
2016-Jul-26 04:32N 49°18' W 123°08'0 0.0
2016-Jul-26 03:32N 49°18' W 123°08'0 0.0
2016-Jul-26 02:29N 49°18' W 123°08'0 0.0
2016-Jul-26 01:32N 49°18' W 123°08'0 0.0
2016-Jul-26 00:32N 49°18' W 123°08'0 0.0
2016-Jul-25 23:32N 49°18' W 123°08'0 0.0
2016-Jul-25 22:32N 49°18' W 123°08'1 1.4
2016-Jul-25 21:33N 49°19' W 123°09'9 9.4
2016-Jul-25 20:33N 49°25' W 123°19'6 5.4
2016-Jul-25 19:21N 49°24' W 123°29'0 0.0
2016-Jul-25 18:30N 49°24' W 123°29'7 7.7
2016-Jul-25 17:33N 49°24' W 123°18'9 9.4
2016-Jul-25 16:33N 49°18' W 123°07'1 0.8
2016-Jul-25 15:31N 49°18' W 123°08'0 0.0
2016-Jul-25 14:31N 49°18' W 123°08'0 0.0
2016-Jul-25 13:31N 49°18' W 123°08'0 0.0
2016-Jul-25 12:31N 49°18' W 123°08'0 0.0
2016-Jul-25 11:31N 49°18' W 123°08'0 0.0
2016-Jul-25 10:28N 49°18' W 123°08'0 0.0
2016-Jul-25 09:31N 49°18' W 123°08'0 0.0
2016-Jul-25 08:31N 49°18' W 123°08'0 0.0
2016-Jul-25 07:31N 49°18' W 123°08'0 0.0
2016-Jul-25 06:31N 49°18' W 123°08'0 0.0
2016-Jul-25 05:28N 49°18' W 123°08'0 0.0
2016-Jul-25 04:31N 49°18' W 123°08'0 0.0
2016-Jul-25 03:31N 49°18' W 123°08'0 0.0
2016-Jul-25 02:31N 49°18' W 123°08'0 0.0
2016-Jul-25 01:31N 49°18' W 123°08'0 0.0
2016-Jul-25 00:31N 49°18' W 123°08'0 0.0
2016-Jul-24 23:31N 49°18' W 123°08'0 0.0
2016-Jul-24 22:31N 49°18' W 123°08'0 0.0
2016-Jul-24 21:31N 49°18' W 123°08'0 0.0
2016-Jul-24 20:31N 49°18' W 123°08'0 0.0
2016-Jul-24 19:31N 49°18' W 123°08'0 0.0
2016-Jul-24 18:28N 49°18' W 123°08'0 0.0
2016-Jul-24 17:31N 49°18' W 123°08'0 0.0
2016-Jul-24 16:31N 49°18' W 123°08'0 0.0
2016-Jul-24 15:32N 49°18' W 123°08'0 0.0
2016-Jul-24 14:31N 49°18' W 123°08'0 0.0
2016-Jul-24 13:31N 49°18' W 123°08'0 0.0
2016-Jul-24 12:31N 49°18' W 123°08'0 0.0
2016-Jul-24 11:31N 49°18' W 123°08'0 0.0
2016-Jul-24 10:31N 49°18' W 123°08'0 0.0
2016-Jul-24 09:31N 49°18' W 123°08'0 0.0
2016-Jul-24 08:31N 49°18' W 123°08'0 0.0
2016-Jul-24 07:31N 49°18' W 123°08'0 0.0
2016-Jul-24 06:31N 49°18' W 123°08'2 1.7
2016-Jul-24 05:33N 49°18' W 123°10'1 1.1
2016-Jul-24 04:33N 49°18' W 123°11'2 2.4
2016-Jul-24 03:33N 49°19' W 123°08'1 1.1
2016-Jul-24 02:31N 49°18' W 123°08'0 0.0
2016-Jul-24 01:31N 49°18' W 123°08'0 0.0
2016-Jul-24 00:31N 49°18' W 123°08'0 0.0
2016-Jul-23 23:31N 49°18' W 123°08'0 0.0
2016-Jul-23 22:31N 49°18' W 123°08'0 0.0
2016-Jul-23 21:31N 49°18' W 123°08'0 0.0
2016-Jul-23 20:31N 49°18' W 123°08'0 0.1
2016-Jul-23 19:33N 49°18' W 123°08'7 7.3
2016-Jul-23 18:33N 49°21' W 123°18'10 4.6
2016-Jul-23 16:25N 49°31' W 123°18'911.0
2016-Jul-23 15:33N 49°21' W 123°18'7 7.0
2016-Jul-23 14:31N 49°18' W 123°08'0 0.0
2016-Jul-23 13:31N 49°18' W 123°08'0 0.0
2016-Jul-23 12:31N 49°18' W 123°08'0 0.0
2016-Jul-23 11:31N 49°18' W 123°08'0 0.0
2016-Jul-23 10:31N 49°18' W 123°08'0 0.0
2016-Jul-23 09:31N 49°18' W 123°08'0 0.0
2016-Jul-23 08:31N 49°18' W 123°08'0 0.0
2016-Jul-23 07:31N 49°18' W 123°08'0 0.0
2016-Jul-23 06:31N 49°18' W 123°08'0 0.0
2016-Jul-23 04:31N 49°18' W 123°08'0 0.0
2016-Jul-23 03:31N 49°18' W 123°08'0 0.0
2016-Jul-23 02:31N 49°18' W 123°08'0 0.0
2016-Jul-23 01:31N 49°18' W 123°08'0 0.0
2016-Jul-23 00:31N 49°18' W 123°08'0 0.0
2016-Jul-22 23:28N 49°18' W 123°08'0 0.0
2016-Jul-22 22:31N 49°18' W 123°08'0 0.0
2016-Jul-22 21:31N 49°18' W 123°08'0 0.0
2016-Jul-22 20:31N 49°18' W 123°08'0 0.0
2016-Jul-22 19:31N 49°18' W 123°08'0 0.0
2016-Jul-22 18:31N 49°18' W 123°08'0 0.0
2016-Jul-22 17:31N 49°18' W 123°08'0 0.0
2016-Jul-22 16:31N 49°18' W 123°08'0 0.0
2016-Jul-22 15:31N 49°18' W 123°08'0 0.0
2016-Jul-22 14:31N 49°18' W 123°08'0 0.0
2016-Jul-22 13:31N 49°18' W 123°08'0 0.0
2016-Jul-22 12:31N 49°18' W 123°08'0 0.0
2016-Jul-22 11:31N 49°18' W 123°08'0 0.0
2016-Jul-22 10:31N 49°18' W 123°08'0 0.0
2016-Jul-22 09:31N 49°18' W 123°08'0 0.0
2016-Jul-22 08:31N 49°18' W 123°08'0 0.0
2016-Jul-22 07:31N 49°18' W 123°08'0 0.0
2016-Jul-22 04:31N 49°18' W 123°08'0 0.0
2016-Jul-22 03:31N 49°18' W 123°08'1 1.2
2016-Jul-22 02:33N 49°18' W 123°06'9 8.5
2016-Jul-22 01:33N 49°21' W 122°54'1 0.5
2016-Jul-22 00:33N 49°21' W 122°53'9 9.4
2016-Jul-21 23:33N 49°18' W 123°07'1 0.7
2016-Jul-21 22:31N 49°18' W 123°08'0 0.0
2016-Jul-21 21:31N 49°18' W 123°08'0 0.0
2016-Jul-21 20:31N 49°18' W 123°08'0 0.0
2016-Jul-21 19:31N 49°18' W 123°08'0 0.0
2016-Jul-21 18:28N 49°18' W 123°08'0 0.0
2016-Jul-21 17:28N 49°18' W 123°08'0 0.0
2016-Jul-21 16:28N 49°18' W 123°08'0 0.0
2016-Jul-21 15:16N 49°18' W 123°08'0 0.0
2016-Jul-21 10:04N 49°18' W 123°08'  
Track history (hours):
 
Tides and Currents Weather Stations Pressure Air Temp Water Temp Dewpoint Dewpoint Depression Visibility Wind Speed Wind Dir Waves Ship Positions

Britannia

Last reported at 2016-Jul-31 08:32 UTC. Time now 2016-Jul-31 09:27 UTC.
Position N 49°18' W 123°08'.

Length 38 m; draft 5.4 m.

Type: Passenger vessel. MMSI: 316021351.

Date/timePositionNaut miles runAvg speedWind from/ knotsBaromVisibWave heightAir tempDewpointWater temp
2016-Jul-31 08:32N 49°18' W 123°08'0 0.0
2016-Jul-31 07:29N 49°18' W 123°08'0 0.0
2016-Jul-31 06:32N 49°18' W 123°08'1 1.5
2016-Jul-31 05:33N 49°19' W 123°10'1 1.1
2016-Jul-31 04:33N 49°18' W 123°11'3 2.7
2016-Jul-31 03:34N 49°18' W 123°07'1 0.9
2016-Jul-31 02:33N 49°18' W 123°08'0 0.0
2016-Jul-31 01:33N 49°18' W 123°08'0 0.0
2016-Jul-31 00:33N 49°18' W 123°08'0 0.0
2016-Jul-30 22:33N 49°18' W 123°08'0 0.0
2016-Jul-30 21:33N 49°18' W 123°08'3 3.0
2016-Jul-30 20:33N 49°19' W 123°12'9 8.8
2016-Jul-30 19:33N 49°27' W 123°18'4 3.1
2016-Jul-30 18:22N 49°31' W 123°18'4 5.0
2016-Jul-30 17:33N 49°27' W 123°18'9 8.9
2016-Jul-30 16:33N 49°19' W 123°11'2 2.3
2016-Jul-30 15:32N 49°18' W 123°08'0 0.0
2016-Jul-30 14:32N 49°18' W 123°08'0 0.0
2016-Jul-30 13:32N 49°18' W 123°08'0 0.0
2016-Jul-30 12:32N 49°18' W 123°08'0 0.0
2016-Jul-30 11:32N 49°18' W 123°08'0 0.0
2016-Jul-30 10:32N 49°18' W 123°08'0 0.0
2016-Jul-30 09:32N 49°18' W 123°08'0 0.0
2016-Jul-30 08:32N 49°18' W 123°08'0 0.0
2016-Jul-30 07:32N 49°18' W 123°08'0 0.0
2016-Jul-30 06:32N 49°18' W 123°08'0 0.0
2016-Jul-30 05:32N 49°18' W 123°08'0 0.0
2016-Jul-30 04:32N 49°18' W 123°08'0 0.0
2016-Jul-30 03:32N 49°18' W 123°08'0 0.0
2016-Jul-30 02:32N 49°18' W 123°08'0 0.0
2016-Jul-30 01:32N 49°18' W 123°08'0 0.0
2016-Jul-30 00:32N 49°18' W 123°08'0 0.0
2016-Jul-29 23:32N 49°18' W 123°08'0 0.0
2016-Jul-29 22:32N 49°18' W 123°08'0 0.0
2016-Jul-29 21:32N 49°18' W 123°08'0 0.0
2016-Jul-29 20:32N 49°18' W 123°08'0 0.0
2016-Jul-29 19:32N 49°18' W 123°08'0 0.0
2016-Jul-29 18:32N 49°18' W 123°08'0 0.0
2016-Jul-29 17:32N 49°18' W 123°08'0 0.0
2016-Jul-29 16:32N 49°18' W 123°08'0 0.0
2016-Jul-29 15:32N 49°18' W 123°08'0 0.0
2016-Jul-29 14:32N 49°18' W 123°08'0 0.0
2016-Jul-29 13:32N 49°18' W 123°08'0 0.0
2016-Jul-29 12:32N 49°18' W 123°08'0 0.0
2016-Jul-29 11:32N 49°18' W 123°08'0 0.0
2016-Jul-29 10:29N 49°18' W 123°08'0 0.0
2016-Jul-29 09:32N 49°18' W 123°08'0 0.0
2016-Jul-29 08:32N 49°18' W 123°08'0 0.0
2016-Jul-29 07:32N 49°18' W 123°08'0 0.0
2016-Jul-29 06:32N 49°18' W 123°08'0 0.0
2016-Jul-29 05:32N 49°18' W 123°08'0 0.0
2016-Jul-29 04:32N 49°18' W 123°08'0 0.0
2016-Jul-29 03:32N 49°18' W 123°08'0 0.0
2016-Jul-29 02:32N 49°18' W 123°08'0 0.0
2016-Jul-29 01:32N 49°18' W 123°08'1 0.6
2016-Jul-29 00:33N 49°18' W 123°07'1 0.6
2016-Jul-28 23:33N 49°18' W 123°08'3 2.7
2016-Jul-28 22:32N 49°19' W 123°11'9 8.9
2016-Jul-28 21:33N 49°25' W 123°22'2 0.8
2016-Jul-28 19:24N 49°25' W 123°24'8 8.7
2016-Jul-28 18:32N 49°20' W 123°16'6 1.7
2016-Jul-28 15:12N 49°18' W 123°08'0 0.0
2016-Jul-28 13:06N 49°18' W 123°08'0 0.0
2016-Jul-28 12:30N 49°18' W 123°08'0 0.0
2016-Jul-28 11:18N 49°18' W 123°08'0 0.0
2016-Jul-28 10:30N 49°18' W 123°08'0 0.0
2016-Jul-28 09:30N 49°18' W 123°08'0 0.0
2016-Jul-28 07:24N 49°18' W 123°08'0 0.4
2016-Jul-28 06:33N 49°18' W 123°08'2 2.3
2016-Jul-28 05:33N 49°18' W 123°11'1 0.9
2016-Jul-28 04:12N 49°18' W 123°13'3 4.7
2016-Jul-28 03:33N 49°19' W 123°08'1 1.1
2016-Jul-28 02:24N 49°18' W 123°08'0 0.0
2016-Jul-28 01:12N 49°18' W 123°08'0 0.0
2016-Jul-28 00:24N 49°18' W 123°08'0 0.0
2016-Jul-27 23:24N 49°18' W 123°08'0 0.0
2016-Jul-27 22:30N 49°18' W 123°08'0 0.0
2016-Jul-27 21:33N 49°18' W 123°08'0 0.0
2016-Jul-27 20:33N 49°18' W 123°08'0 0.0
2016-Jul-27 19:33N 49°18' W 123°08'0 0.0
2016-Jul-27 18:33N 49°18' W 123°08'0 0.0
2016-Jul-27 17:33N 49°18' W 123°08'0 0.0
2016-Jul-27 16:33N 49°18' W 123°08'0 0.0
2016-Jul-27 15:33N 49°18' W 123°08'0 0.0
2016-Jul-27 14:33N 49°18' W 123°08'0 0.0
2016-Jul-27 13:33N 49°18' W 123°08'0 0.0
2016-Jul-27 12:33N 49°18' W 123°08'0 0.0
2016-Jul-27 11:33N 49°18' W 123°08'0 0.0
2016-Jul-27 10:32N 49°18' W 123°08'0 0.0
2016-Jul-27 09:32N 49°18' W 123°08'0 0.0
2016-Jul-27 08:32N 49°18' W 123°08'0 0.0
2016-Jul-27 07:32N 49°18' W 123°08'0 0.0
2016-Jul-27 06:32N 49°18' W 123°08'0 0.0
2016-Jul-27 05:32N 49°18' W 123°08'0 0.0
2016-Jul-27 04:32N 49°18' W 123°08'0 0.0
2016-Jul-27 03:32N 49°18' W 123°08'0 0.0
2016-Jul-27 02:32N 49°18' W 123°08'0 0.0
2016-Jul-27 01:32N 49°18' W 123°08'0 0.0
2016-Jul-27 00:32N 49°18' W 123°08'0 0.0
2016-Jul-26 23:32N 49°18' W 123°08'0 0.0
2016-Jul-26 22:32N 49°18' W 123°08'0 0.0
2016-Jul-26 21:32N 49°18' W 123°08'0 0.0
2016-Jul-26 20:32N 49°18' W 123°08'0 0.0
2016-Jul-26 19:32N 49°18' W 123°08'0 0.0
2016-Jul-26 18:32N 49°18' W 123°08'0 0.0
2016-Jul-26 17:32N 49°18' W 123°08'0 0.0
2016-Jul-26 16:32N 49°18' W 123°08'0 0.0
2016-Jul-26 15:32N 49°18' W 123°08'0 0.0
2016-Jul-26 14:32N 49°18' W 123°08'0 0.0
2016-Jul-26 13:32N 49°18' W 123°08'0 0.0
2016-Jul-26 12:29N 49°18' W 123°08'0 0.0
2016-Jul-26 11:32N 49°18' W 123°08'0 0.0
2016-Jul-26 10:32N 49°18' W 123°08'0 0.0
2016-Jul-26 09:32N 49°18' W 123°08'0 0.0
2016-Jul-26 08:32N 49°18' W 123°08'0 0.0
2016-Jul-26 07:32N 49°18' W 123°08'0 0.0
2016-Jul-26 06:32N 49°18' W 123°08'0 0.0
2016-Jul-26 05:32N 49°18' W 123°08'0 0.0
2016-Jul-26 04:32N 49°18' W 123°08'0 0.0
2016-Jul-26 03:32N 49°18' W 123°08'0 0.0
2016-Jul-26 02:29N 49°18' W 123°08'0 0.0
2016-Jul-26 01:32N 49°18' W 123°08'0 0.0
2016-Jul-26 00:32N 49°18' W 123°08'0 0.0
2016-Jul-25 23:32N 49°18' W 123°08'0 0.0
2016-Jul-25 22:32N 49°18' W 123°08'1 1.4
2016-Jul-25 21:33N 49°19' W 123°09'9 9.4
2016-Jul-25 20:33N 49°25' W 123°19'6 5.4
2016-Jul-25 19:21N 49°24' W 123°29'0 0.0
2016-Jul-25 18:30N 49°24' W 123°29'7 7.7
2016-Jul-25 17:33N 49°24' W 123°18'9 9.4
2016-Jul-25 16:33N 49°18' W 123°07'1 0.8
2016-Jul-25 15:31N 49°18' W 123°08'0 0.0
2016-Jul-25 14:31N 49°18' W 123°08'0 0.0
2016-Jul-25 13:31N 49°18' W 123°08'0 0.0
2016-Jul-25 12:31N 49°18' W 123°08'0 0.0
2016-Jul-25 11:31N 49°18' W 123°08'0 0.0
2016-Jul-25 10:28N 49°18' W 123°08'0 0.0
2016-Jul-25 09:31N 49°18' W 123°08'0 0.0
2016-Jul-25 08:31N 49°18' W 123°08'0 0.0
2016-Jul-25 07:31N 49°18' W 123°08'0 0.0
2016-Jul-25 06:31N 49°18' W 123°08'0 0.0
2016-Jul-25 05:28N 49°18' W 123°08'0 0.0
2016-Jul-25 04:31N 49°18' W 123°08'0 0.0
2016-Jul-25 03:31N 49°18' W 123°08'0 0.0
2016-Jul-25 02:31N 49°18' W 123°08'0 0.0
2016-Jul-25 01:31N 49°18' W 123°08'0 0.0
2016-Jul-25 00:31N 49°18' W 123°08'0 0.0
2016-Jul-24 23:31N 49°18' W 123°08'0 0.0
2016-Jul-24 22:31N 49°18' W 123°08'0 0.0
2016-Jul-24 21:31N 49°18' W 123°08'0 0.0
2016-Jul-24 20:31N 49°18' W 123°08'0 0.0
2016-Jul-24 19:31N 49°18' W 123°08'0 0.0
2016-Jul-24 18:28N 49°18' W 123°08'0 0.0
2016-Jul-24 17:31N 49°18' W 123°08'0 0.0
2016-Jul-24 16:31N 49°18' W 123°08'0 0.0
2016-Jul-24 15:32N 49°18' W 123°08'0 0.0
2016-Jul-24 14:31N 49°18' W 123°08'0 0.0
2016-Jul-24 13:31N 49°18' W 123°08'0 0.0
2016-Jul-24 12:31N 49°18' W 123°08'0 0.0
2016-Jul-24 11:31N 49°18' W 123°08'0 0.0
2016-Jul-24 10:31N 49°18' W 123°08'0 0.0
2016-Jul-24 09:31N 49°18' W 123°08'0 0.0
2016-Jul-24 08:31N 49°18' W 123°08'0 0.0
2016-Jul-24 07:31N 49°18' W 123°08'0 0.0
2016-Jul-24 06:31N 49°18' W 123°08'2 1.7
2016-Jul-24 05:33N 49°18' W 123°10'1 1.1
2016-Jul-24 04:33N 49°18' W 123°11'2 2.4
2016-Jul-24 03:33N 49°19' W 123°08'1 1.1
2016-Jul-24 02:31N 49°18' W 123°08'0 0.0
2016-Jul-24 01:31N 49°18' W 123°08'0 0.0
2016-Jul-24 00:31N 49°18' W 123°08'0 0.0
2016-Jul-23 23:31N 49°18' W 123°08'0 0.0
2016-Jul-23 22:31N 49°18' W 123°08'0 0.0
2016-Jul-23 21:31N 49°18' W 123°08'0 0.0
2016-Jul-23 20:31N 49°18' W 123°08'0 0.1
2016-Jul-23 19:33N 49°18' W 123°08'7 7.3
2016-Jul-23 18:33N 49°21' W 123°18'10 4.6
2016-Jul-23 16:25N 49°31' W 123°18'911.0
2016-Jul-23 15:33N 49°21' W 123°18'7 7.0
2016-Jul-23 14:31N 49°18' W 123°08'0 0.0
2016-Jul-23 13:31N 49°18' W 123°08'0 0.0
2016-Jul-23 12:31N 49°18' W 123°08'0 0.0
2016-Jul-23 11:31N 49°18' W 123°08'0 0.0
2016-Jul-23 10:31N 49°18' W 123°08'0 0.0
2016-Jul-23 09:31N 49°18' W 123°08'0 0.0
2016-Jul-23 08:31N 49°18' W 123°08'0 0.0
2016-Jul-23 07:31N 49°18' W 123°08'0 0.0
2016-Jul-23 06:31N 49°18' W 123°08'0 0.0
2016-Jul-23 04:31N 49°18' W 123°08'0 0.0
2016-Jul-23 03:31N 49°18' W 123°08'0 0.0
2016-Jul-23 02:31N 49°18' W 123°08'0 0.0
2016-Jul-23 01:31N 49°18' W 123°08'0 0.0
2016-Jul-23 00:31N 49°18' W 123°08'0 0.0
2016-Jul-22 23:28N 49°18' W 123°08'0 0.0
2016-Jul-22 22:31N 49°18' W 123°08'0 0.0
2016-Jul-22 21:31N 49°18' W 123°08'0 0.0
2016-Jul-22 20:31N 49°18' W 123°08'0 0.0
2016-Jul-22 19:31N 49°18' W 123°08'0 0.0
2016-Jul-22 18:31N 49°18' W 123°08'0 0.0
2016-Jul-22 17:31N 49°18' W 123°08'0 0.0
2016-Jul-22 16:31N 49°18' W 123°08'0 0.0
2016-Jul-22 15:31N 49°18' W 123°08'0 0.0
2016-Jul-22 14:31N 49°18' W 123°08'0 0.0
2016-Jul-22 13:31N 49°18' W 123°08'0 0.0
2016-Jul-22 12:31N 49°18' W 123°08'0 0.0
2016-Jul-22 11:31N 49°18' W 123°08'0 0.0
2016-Jul-22 10:31N 49°18' W 123°08'0 0.0
2016-Jul-22 09:31N 49°18' W 123°08'0 0.0
2016-Jul-22 08:31N 49°18' W 123°08'0 0.0
2016-Jul-22 07:31N 49°18' W 123°08'0 0.0
2016-Jul-22 04:31N 49°18' W 123°08'0 0.0
2016-Jul-22 03:31N 49°18' W 123°08'1 1.2
2016-Jul-22 02:33N 49°18' W 123°06'9 8.5
2016-Jul-22 01:33N 49°21' W 122°54'1 0.5
2016-Jul-22 00:33N 49°21' W 122°53'9 9.4
2016-Jul-21 23:33N 49°18' W 123°07'1 0.7
2016-Jul-21 22:31N 49°18' W 123°08'0 0.0
2016-Jul-21 21:31N 49°18' W 123°08'0 0.0
2016-Jul-21 20:31N 49°18' W 123°08'0 0.0
2016-Jul-21 19:31N 49°18' W 123°08'0 0.0
2016-Jul-21 18:28N 49°18' W 123°08'0 0.0
2016-Jul-21 17:28N 49°18' W 123°08'0 0.0
2016-Jul-21 16:28N 49°18' W 123°08'0 0.0
2016-Jul-21 15:16N 49°18' W 123°08'0 0.0
2016-Jul-21 10:04N 49°18' W 123°08'  

Dump ship's entire track history